createdAt,value
2018-10-18T00:02:20.659Z,45.75
2018-10-18T00:07:24.031Z,53.60
2018-10-18T00:12:27.496Z,55.40
2018-10-18T00:17:36.372Z,53.03
2018-10-18T00:22:39.749Z,52.23
2018-10-18T00:27:43.155Z,47.77
2018-10-18T00:32:46.572Z,49.83
2018-10-18T00:37:50.020Z,48.93
2018-10-18T00:42:53.380Z,50.57
2018-10-18T00:47:56.820Z,49.87
2018-10-18T00:53:00.257Z,49.80
2018-10-18T00:58:03.668Z,50.12
2018-10-18T01:03:07.040Z,49.23
2018-10-18T01:08:10.522Z,47.70
2018-10-18T01:13:13.827Z,46.67
2018-10-18T01:18:17.237Z,49.47
2018-10-18T01:23:20.639Z,47.48
2018-10-18T01:28:24.011Z,48.63
2018-10-18T01:33:27.580Z,45.27
2018-10-18T01:38:30.964Z,55.27
2018-10-18T01:43:34.343Z,45.40
2018-10-18T01:48:37.851Z,47.93
2018-10-18T01:53:41.485Z,52.90
2018-10-18T01:58:44.863Z,49.87
2018-10-18T02:03:48.248Z,49.63
2018-10-18T02:08:51.622Z,52.83
2018-10-18T02:13:54.994Z,51.40
2018-10-18T02:18:58.395Z,50.00
2018-10-18T02:24:01.900Z,48.53
2018-10-18T02:29:05.394Z,47.70
2018-10-18T02:34:08.785Z,48.73
2018-10-18T02:39:12.160Z,48.13
2018-10-18T02:44:15.572Z,54.73
2018-10-18T02:49:18.983Z,52.53
2018-10-18T02:54:22.388Z,43.80
2018-10-18T02:59:25.855Z,51.17
2018-10-18T03:04:29.244Z,47.30
2018-10-18T03:09:32.625Z,54.33
2018-10-18T03:14:36.015Z,49.00
2018-10-18T03:19:39.415Z,49.67
2018-10-18T03:24:42.795Z,50.43
2018-10-18T03:29:46.163Z,53.40
2018-10-18T03:34:49.555Z,55.60
2018-10-18T03:39:53.005Z,52.97
2018-10-18T03:44:56.424Z,48.00
2018-10-18T03:49:59.795Z,51.77
2018-10-18T03:55:03.171Z,50.33
2018-10-18T04:00:07.356Z,49.23
2018-10-18T04:05:11.170Z,48.57
2018-10-18T04:10:14.559Z,44.20
2018-10-18T04:15:17.974Z,48.27
2018-10-18T04:20:21.354Z,50.40
2018-10-18T04:25:24.818Z,50.30
2018-10-18T04:30:28.177Z,54.57
2018-10-18T04:35:31.554Z,47.58
2018-10-18T04:40:35.003Z,47.67
2018-10-18T04:45:38.380Z,45.47
2018-10-18T04:50:41.875Z,48.57
2018-10-18T04:55:45.353Z,44.70
2018-10-18T05:00:48.754Z,48.60
2018-10-18T05:05:57.973Z,46.27
2018-10-18T05:11:01.368Z,50.10
2018-10-18T05:16:05.392Z,48.80
2018-10-18T05:21:08.827Z,49.23
2018-10-18T05:26:12.204Z,51.47
2018-10-18T05:31:15.655Z,51.93
2018-10-18T05:36:19.116Z,45.20
2018-10-18T05:41:22.478Z,50.27
2018-10-18T05:46:25.898Z,51.30
2018-10-18T05:51:29.283Z,48.03
2018-10-18T05:56:32.695Z,46.60
2018-10-18T06:01:36.118Z,49.80
2018-10-18T06:06:39.557Z,55.57
2018-10-18T06:11:42.956Z,49.90
2018-10-18T06:16:46.331Z,50.50
2018-10-18T06:21:49.914Z,57.10
2018-10-18T06:26:53.352Z,54.67
2018-10-18T06:31:56.816Z,55.83
2018-10-18T06:37:00.221Z,53.80
2018-10-18T06:42:03.604Z,50.80
2018-10-18T06:47:07.140Z,49.63
2018-10-18T06:52:10.457Z,53.07
2018-10-18T06:57:13.936Z,58.23
2018-10-18T07:02:17.418Z,51.83
2018-10-18T07:07:20.883Z,55.45
2018-10-18T07:12:24.324Z,59.97
2018-10-18T07:17:27.716Z,61.57
2018-10-18T07:22:31.152Z,63.60
2018-10-18T07:27:34.596Z,56.60
2018-10-18T07:32:38.019Z,61.90
2018-10-18T07:37:41.407Z,74.67
2018-10-18T07:42:44.888Z,64.30
2018-10-18T07:47:48.271Z,67.53
2018-10-18T07:52:51.684Z,59.63
2018-10-18T07:57:55.268Z,90.35
2018-10-18T08:02:58.689Z,87.93
2018-10-18T08:08:02.111Z,91.35
2018-10-18T08:13:05.519Z,109.37
2018-10-18T08:18:08.924Z,98.07
2018-10-18T08:23:12.311Z,109.60
2018-10-18T08:28:15.691Z,107.03
2018-10-18T08:33:19.080Z,113.37
2018-10-18T08:38:23.142Z,108.40
2018-10-18T08:43:26.527Z,114.83
2018-10-18T08:48:29.919Z,100.18
2018-10-18T08:53:33.348Z,104.67
2018-10-18T08:58:36.811Z,102.13
2018-10-18T09:03:40.548Z,112.43
2018-10-18T09:08:44.011Z,118.23
2018-10-18T09:13:47.407Z,116.40
2018-10-18T09:18:50.835Z,117.00
2018-10-18T09:23:54.413Z,119.03
2018-10-18T09:28:57.764Z,117.80
2018-10-18T09:34:01.151Z,113.57
2018-10-18T09:39:05.994Z,111.07
2018-10-18T09:44:09.566Z,108.00
2018-10-18T09:49:13.041Z,116.97
2018-10-18T09:54:16.456Z,107.30
2018-10-18T09:59:19.847Z,109.75
2018-10-18T10:04:23.323Z,118.43
2018-10-18T10:09:26.815Z,106.17
2018-10-18T10:14:30.198Z,96.37
2018-10-18T10:32:12.392Z,90.20
2018-10-18T10:37:16.010Z,83.50
2018-10-18T10:42:19.497Z,77.70
2018-10-18T10:47:22.860Z,88.50
2018-10-18T10:52:26.539Z,73.30
2018-10-18T10:57:30.864Z,76.70
2018-10-18T11:02:34.764Z,192.37
2018-10-18T11:07:38.242Z,87.47
2018-10-18T11:12:41.740Z,85.47
2018-10-18T11:17:45.168Z,77.92
2018-10-18T11:22:51.344Z,80.13
2018-10-18T11:27:54.796Z,96.03
2018-10-18T11:32:58.250Z,79.67
2018-10-18T11:38:01.725Z,83.20
2018-10-18T11:43:05.332Z,159.57
2018-10-18T11:48:10.102Z,70.20
2018-10-18T11:53:13.463Z,68.40
2018-10-18T11:58:17.047Z,63.60
2018-10-18T12:03:20.507Z,59.83
2018-10-18T12:08:23.987Z,57.30
2018-10-18T12:13:27.514Z,60.23
2018-10-18T12:18:31.034Z,62.53
2018-10-18T12:23:34.552Z,64.67
2018-10-18T12:28:38.052Z,57.03
2018-10-18T12:33:41.889Z,63.10
2018-10-18T12:38:45.388Z,59.07
2018-10-18T12:43:48.801Z,56.33
2018-10-18T12:48:52.231Z,53.43
2018-10-18T12:53:55.725Z,60.57
2018-10-18T12:58:59.153Z,55.40
2018-10-18T13:04:02.544Z,57.10
2018-10-18T13:09:08.694Z,60.27
2018-10-18T13:14:12.176Z,53.83
2018-10-18T13:19:15.889Z,51.97
2018-10-18T13:24:19.607Z,50.87
2018-10-18T13:29:22.856Z,54.97
2018-10-18T13:34:26.235Z,49.37
2018-10-18T13:39:29.709Z,53.57
2018-10-18T13:44:33.218Z,60.07
2018-10-18T13:49:36.804Z,64.40
2018-10-18T13:54:40.250Z,65.80
2018-10-18T13:59:55.184Z,71.50
2018-10-18T14:04:58.628Z,71.30
2018-10-18T14:10:03.133Z,67.90
2018-10-18T14:15:07.380Z,68.07
2018-10-18T14:20:10.974Z,73.33
2018-10-18T14:25:14.377Z,82.43
2018-10-18T14:30:17.878Z,77.70
2018-10-18T14:35:21.337Z,86.97
2018-10-18T14:40:24.684Z,87.07
2018-10-18T14:45:28.105Z,88.97
2018-10-18T14:50:31.882Z,91.13
2018-10-18T14:55:35.123Z,85.70
2018-10-18T15:00:38.584Z,84.30
2018-10-18T15:05:42.005Z,90.23
2018-10-18T15:10:45.457Z,81.50
2018-10-18T15:15:49.022Z,86.27
2018-10-18T15:20:52.460Z,81.10
2018-10-18T15:25:56.016Z,83.17
2018-10-18T15:30:59.368Z,88.80
2018-10-18T15:36:02.794Z,85.43
2018-10-18T15:41:06.314Z,97.47
2018-10-18T15:46:09.704Z,100.50
2018-10-18T15:51:13.397Z,101.13
2018-10-18T15:56:16.968Z,111.03
2018-10-18T16:01:20.437Z,108.27
2018-10-18T16:06:23.945Z,111.77
2018-10-18T16:11:27.492Z,115.03
2018-10-18T16:16:30.896Z,131.17
2018-10-18T16:21:34.355Z,117.80
2018-10-18T16:26:37.942Z,116.10
2018-10-18T16:31:41.312Z,110.37
2018-10-18T16:36:44.716Z,109.93
2018-10-18T16:41:48.250Z,118.60
2018-10-18T16:46:51.744Z,110.33
2018-10-18T16:51:55.231Z,106.77
2018-10-18T16:56:58.590Z,107.80
2018-10-18T17:02:02.170Z,97.10
2018-10-18T17:07:05.688Z,106.90
2018-10-18T17:12:09.156Z,95.97
2018-10-18T17:17:12.524Z,90.00
2018-10-18T17:22:16.011Z,92.97
2018-10-18T17:27:19.523Z,83.87
2018-10-18T17:32:22.984Z,82.27
2018-10-18T17:37:26.351Z,75.13
2018-10-18T17:42:29.763Z,85.97
2018-10-18T17:47:33.444Z,88.37
2018-10-18T17:52:36.854Z,71.33
2018-10-18T17:57:40.303Z,78.00
2018-10-18T18:02:43.768Z,69.43
2018-10-18T18:07:47.171Z,69.20
2018-10-18T18:12:50.559Z,71.47
2018-10-18T18:17:53.942Z,72.20
2018-10-18T18:22:57.384Z,74.57
2018-10-18T18:28:00.770Z,92.77
2018-10-18T18:33:04.266Z,89.77
2018-10-18T18:38:07.703Z,99.13
2018-10-18T18:43:11.091Z,89.13
2018-10-18T18:48:14.475Z,100.07
2018-10-18T18:53:17.986Z,87.47
2018-10-18T18:58:21.431Z,76.87
2018-10-18T19:03:24.949Z,81.83
2018-10-18T19:08:28.366Z,87.30
2018-10-18T19:13:31.994Z,78.23
2018-10-18T19:18:35.207Z,66.90
2018-10-18T19:23:38.633Z,46.80
2018-10-18T19:28:42.221Z,48.33
2018-10-18T19:33:45.568Z,50.23
2018-10-18T19:38:49.429Z,42.33
2018-10-18T19:43:52.942Z,44.27
2018-10-18T19:48:56.385Z,50.37
2018-10-18T19:53:59.812Z,38.47
2018-10-18T19:59:03.216Z,37.33
2018-10-18T20:04:06.674Z,32.03
2018-10-18T20:09:11.761Z,36.53
2018-10-18T20:14:15.212Z,26.48
2018-10-18T20:19:18.597Z,28.37
2018-10-18T20:24:23.958Z,32.03
2018-10-18T20:29:27.453Z,30.63
2018-10-18T20:34:30.883Z,28.00
2018-10-18T20:39:34.433Z,24.27
2018-10-18T20:44:37.917Z,25.23
2018-10-18T20:49:41.314Z,16.50
2018-10-18T20:54:44.828Z,15.73
2018-10-18T20:59:48.253Z,19.13
2018-10-18T21:04:51.693Z,22.03
2018-10-18T21:09:55.083Z,18.53
2018-10-18T21:14:58.475Z,19.57
2018-10-18T21:20:01.866Z,16.53
2018-10-18T21:25:05.394Z,13.18
2018-10-18T21:30:08.988Z,10.87
2018-10-18T21:35:12.409Z,12.40
2018-10-18T21:40:15.852Z,11.93
2018-10-18T21:45:19.325Z,10.23
2018-10-18T21:50:22.711Z,15.50
2018-10-18T21:55:26.175Z,11.87
2018-10-18T22:00:30.355Z,9.43
2018-10-18T22:05:37.719Z,7.17
2018-10-18T22:10:41.347Z,10.80
2018-10-18T22:15:44.750Z,9.57
2018-10-18T22:20:48.128Z,10.43
2018-10-18T22:25:51.511Z,10.40
2018-10-18T22:30:54.895Z,12.10
2018-10-18T22:35:58.284Z,7.25
2018-10-18T22:41:01.780Z,8.10
2018-10-18T22:46:05.335Z,8.17
2018-10-18T22:51:08.730Z,9.37
2018-10-18T22:56:12.148Z,7.00
2018-10-18T23:01:15.571Z,6.17
2018-10-18T23:06:18.999Z,8.93
2018-10-18T23:11:22.386Z,6.80
2018-10-18T23:16:25.759Z,11.83
2018-10-18T23:21:29.148Z,11.90
2018-10-18T23:26:32.536Z,9.10
2018-10-18T23:31:35.955Z,9.23
2018-10-18T23:36:39.419Z,6.23
2018-10-18T23:41:42.804Z,7.00
2018-10-18T23:46:46.192Z,10.97
2018-10-18T23:51:49.652Z,8.77
2018-10-18T23:56:53.095Z,3.80
